createdAt,value
2017-12-26T00:00:12.947Z,1003.62
2017-12-26T00:00:53.515Z,1003.59
2017-12-26T00:01:34.105Z,1003.58
2017-12-26T00:02:14.696Z,1003.56
2017-12-26T00:02:55.313Z,1003.57
2017-12-26T00:03:35.892Z,1003.55
2017-12-26T00:04:16.506Z,1003.51
2017-12-26T00:04:57.101Z,1003.53
2017-12-26T00:05:37.724Z,1003.55
2017-12-26T00:06:18.311Z,1003.54
2017-12-26T00:06:58.882Z,1003.51
2017-12-26T00:07:39.466Z,1003.49
2017-12-26T00:08:20.085Z,1003.53
2017-12-26T00:09:00.658Z,1003.44
2017-12-26T00:09:41.266Z,1003.44
2017-12-26T00:10:21.855Z,1003.41
2017-12-26T00:11:02.426Z,1003.46
2017-12-26T00:11:43.017Z,1003.43
2017-12-26T00:12:23.585Z,1003.45
2017-12-26T00:13:04.180Z,1003.43
2017-12-26T00:13:44.752Z,1003.4
2017-12-26T00:14:25.340Z,1003.37
2017-12-26T00:15:05.921Z,1003.33
2017-12-26T00:15:46.603Z,1003.38
2017-12-26T00:16:27.174Z,1003.32
2017-12-26T00:17:07.800Z,1003.31
2017-12-26T00:17:48.417Z,1003.27
2017-12-26T00:18:28.998Z,1003.22
2017-12-26T00:19:09.600Z,1003.21
2017-12-26T00:19:50.214Z,1003.18
2017-12-26T00:20:30.797Z,1003.22
2017-12-26T00:21:11.362Z,1003.12
2017-12-26T00:21:51.965Z,1003.12
2017-12-26T00:22:32.531Z,1003.12
2017-12-26T00:23:13.137Z,1003.1
2017-12-26T00:23:53.702Z,1003.08
2017-12-26T00:24:34.274Z,1003.07
2017-12-26T00:25:14.836Z,1003.11
2017-12-26T00:25:55.420Z,1003.06
2017-12-26T00:26:35.998Z,1003.02
2017-12-26T00:27:16.581Z,1003.06
2017-12-26T00:27:57.164Z,1003.02
2017-12-26T00:28:37.745Z,1003.04
2017-12-26T00:29:18.312Z,1002.99
2017-12-26T00:29:58.882Z,1003.04
2017-12-26T00:30:39.439Z,1002.97
2017-12-26T00:31:20.077Z,1002.97
2017-12-26T00:32:00.650Z,1002.98
2017-12-26T00:32:41.207Z,1002.95
2017-12-26T00:33:21.783Z,1002.92
2017-12-26T00:34:02.344Z,1002.93
2017-12-26T00:34:42.928Z,1002.92
2017-12-26T00:35:23.552Z,1002.91
2017-12-26T00:36:04.158Z,1002.91
2017-12-26T00:36:44.760Z,1002.89
2017-12-26T00:37:25.362Z,1002.94
2017-12-26T00:38:05.966Z,1002.88
2017-12-26T00:38:46.575Z,1002.87
2017-12-26T00:39:27.166Z,1002.86
2017-12-26T00:40:07.757Z,1002.87
2017-12-26T00:40:48.362Z,1002.81
2017-12-26T00:41:28.921Z,1002.85
2017-12-26T00:42:09.529Z,1002.88
2017-12-26T00:42:50.143Z,1002.84
2017-12-26T00:43:30.710Z,1002.9
2017-12-26T00:44:11.291Z,1002.87
2017-12-26T00:44:51.890Z,1002.9
2017-12-26T00:45:32.468Z,1002.89
2017-12-26T00:46:13.052Z,1002.85
2017-12-26T00:46:53.634Z,1002.87
2017-12-26T00:47:34.209Z,1002.89
2017-12-26T00:48:14.792Z,1002.9
2017-12-26T00:48:55.411Z,1002.85
2017-12-26T00:49:36.020Z,1002.84
2017-12-26T00:50:16.605Z,1002.82
2017-12-26T00:50:57.178Z,1002.81
2017-12-26T00:51:37.785Z,1002.77
2017-12-26T00:52:18.395Z,1002.77
2017-12-26T00:52:59.016Z,1002.78
2017-12-26T00:53:39.614Z,1002.73
2017-12-26T00:54:20.207Z,1002.7
2017-12-26T00:55:00.793Z,1002.68
2017-12-26T00:55:41.400Z,1002.6
2017-12-26T00:56:21.985Z,1002.67
2017-12-26T00:57:02.555Z,1002.64
2017-12-26T00:57:43.153Z,1002.65
2017-12-26T00:58:23.746Z,1002.58
2017-12-26T00:59:04.366Z,1002.58
2017-12-26T00:59:44.949Z,1002.57
2017-12-26T01:00:25.519Z,1002.6
2017-12-26T01:01:06.139Z,1002.56
2017-12-26T01:01:46.716Z,1002.55
2017-12-26T01:02:27.317Z,1002.59
2017-12-26T01:03:07.889Z,1002.51
2017-12-26T01:03:48.451Z,1002.52
2017-12-26T01:04:29.011Z,1002.56
2017-12-26T01:05:09.610Z,1002.58
2017-12-26T01:05:50.173Z,1002.59
2017-12-26T01:06:30.760Z,1002.57
2017-12-26T01:07:11.355Z,1002.58
2017-12-26T01:07:51.926Z,1002.56
2017-12-26T01:08:32.537Z,1002.53
2017-12-26T01:09:13.136Z,1002.52
2017-12-26T01:09:53.728Z,1002.47
2017-12-26T01:10:34.303Z,1002.46
2017-12-26T01:11:14.909Z,1002.46
2017-12-26T01:11:55.475Z,1002.46
2017-12-26T01:12:36.030Z,1002.46
2017-12-26T01:13:16.629Z,1002.44
2017-12-26T01:13:57.188Z,1002.43
2017-12-26T01:14:37.783Z,1002.44
2017-12-26T01:15:18.362Z,1002.41
2017-12-26T01:15:58.934Z,1002.42
2017-12-26T01:16:39.500Z,1002.4
2017-12-26T01:17:20.099Z,1002.43
2017-12-26T01:18:00.705Z,1002.42
2017-12-26T01:18:41.288Z,1002.42
2017-12-26T01:19:21.891Z,1002.4
2017-12-26T01:20:02.468Z,1002.4
2017-12-26T01:20:43.039Z,1002.38
2017-12-26T01:21:23.613Z,1002.35
2017-12-26T01:22:04.180Z,1002.36
2017-12-26T01:22:44.741Z,1002.35
2017-12-26T01:23:25.336Z,1002.37
2017-12-26T01:24:05.906Z,1002.36
2017-12-26T01:24:46.489Z,1002.37
2017-12-26T01:25:27.075Z,1002.33
2017-12-26T01:26:07.660Z,1002.31
2017-12-26T01:26:48.223Z,1002.38
2017-12-26T01:27:28.791Z,1002.29
2017-12-26T01:28:09.383Z,1002.33
2017-12-26T01:28:49.952Z,1002.3
2017-12-26T01:29:30.527Z,1002.25
2017-12-26T01:30:11.100Z,1002.31
2017-12-26T01:30:51.681Z,1002.3
2017-12-26T01:31:32.272Z,1002.25
2017-12-26T01:32:12.845Z,1002.23
2017-12-26T01:32:53.426Z,1002.18
2017-12-26T01:33:34.017Z,1002.16
2017-12-26T01:34:14.634Z,1002.14
2017-12-26T01:34:55.208Z,1002.1
2017-12-26T01:35:35.784Z,1002.13
2017-12-26T01:36:16.381Z,1002.1
2017-12-26T01:36:56.946Z,1002.11
2017-12-26T01:37:37.513Z,1002.06
2017-12-26T01:38:18.074Z,1002.06
2017-12-26T01:38:58.673Z,1002.1
2017-12-26T01:39:39.237Z,1002.06
2017-12-26T01:40:19.813Z,1002.04
2017-12-26T01:41:00.413Z,1002.02
2017-12-26T01:41:41.013Z,1001.98
2017-12-26T01:42:21.602Z,1001.98
2017-12-26T01:43:02.168Z,1001.94
2017-12-26T01:43:42.733Z,1001.94
2017-12-26T01:44:23.283Z,1001.95
2017-12-26T01:45:03.853Z,1001.95
2017-12-26T01:45:44.498Z,1001.96
2017-12-26T01:46:25.074Z,1001.95
2017-12-26T01:47:05.692Z,1001.94
2017-12-26T01:47:46.296Z,1001.91
2017-12-26T01:48:33.545Z,1001.91
2017-12-26T01:49:14.158Z,1001.91
2017-12-26T01:49:54.751Z,1001.95
2017-12-26T01:50:35.319Z,1001.88
2017-12-26T01:51:15.932Z,1001.9
2017-12-26T01:51:56.451Z,1001.87
2017-12-26T01:52:37.057Z,1001.93
2017-12-26T01:53:17.665Z,1001.91
2017-12-26T01:53:58.261Z,1001.88
2017-12-26T01:54:38.866Z,1001.87
2017-12-26T01:55:19.458Z,1001.91
2017-12-26T01:56:00.018Z,1001.87
2017-12-26T01:56:40.612Z,1001.83
2017-12-26T01:57:21.180Z,1001.88
2017-12-26T01:58:01.739Z,1001.89
2017-12-26T01:58:42.324Z,1001.87
2017-12-26T01:59:22.888Z,1001.87
2017-12-26T02:00:03.454Z,1001.82
2017-12-26T02:00:44.032Z,1001.83
2017-12-26T02:01:24.622Z,1001.84
2017-12-26T02:02:05.219Z,1001.81
2017-12-26T02:02:45.790Z,1001.78
2017-12-26T02:03:26.434Z,1001.83
2017-12-26T02:04:07.048Z,1001.82
2017-12-26T02:04:47.616Z,1001.77
2017-12-26T02:05:28.199Z,1001.72
2017-12-26T02:06:08.802Z,1001.67
2017-12-26T02:06:49.406Z,1001.68
2017-12-26T02:07:30.002Z,1001.62
2017-12-26T02:08:10.590Z,1001.64
2017-12-26T02:08:51.169Z,1001.65
2017-12-26T02:09:31.763Z,1001.6
2017-12-26T02:10:12.338Z,1001.61
2017-12-26T02:10:52.894Z,1001.58
2017-12-26T02:11:33.460Z,1001.62
2017-12-26T02:12:14.040Z,1001.59
2017-12-26T02:12:54.608Z,1001.61
2017-12-26T02:13:35.168Z,1001.61
2017-12-26T02:14:15.770Z,1001.57
2017-12-26T02:14:56.342Z,1001.58
2017-12-26T02:15:36.910Z,1001.57
2017-12-26T02:16:17.504Z,1001.55
2017-12-26T02:16:58.083Z,1001.53
2017-12-26T02:17:38.648Z,1001.51
2017-12-26T02:18:19.188Z,1001.48
2017-12-26T02:18:59.794Z,1001.51
2017-12-26T02:19:40.365Z,1001.43
2017-12-26T02:20:21.003Z,1001.4
2017-12-26T02:21:01.606Z,1001.39
2017-12-26T02:21:42.221Z,1001.39
2017-12-26T02:22:22.813Z,1001.37
2017-12-26T02:23:03.412Z,1001.37
2017-12-26T02:23:44.025Z,1001.36
2017-12-26T02:24:24.596Z,1001.39
2017-12-26T02:25:05.170Z,1001.35
2017-12-26T02:25:45.734Z,1001.32
2017-12-26T02:26:26.296Z,1001.34
2017-12-26T02:27:06.882Z,1001.35
2017-12-26T02:27:47.434Z,1001.3
2017-12-26T02:28:28.015Z,1001.29
2017-12-26T02:29:08.621Z,1001.3
2017-12-26T02:29:49.197Z,1001.27
2017-12-26T02:30:29.762Z,1001.26
2017-12-26T02:31:10.336Z,1001.23
2017-12-26T02:31:50.950Z,1001.26
2017-12-26T02:32:31.529Z,1001.24
2017-12-26T02:33:12.128Z,1001.23
2017-12-26T02:33:52.730Z,1001.2
2017-12-26T02:34:33.334Z,1001.17
2017-12-26T02:35:13.945Z,1001.17
2017-12-26T02:35:54.512Z,1001.19
2017-12-26T02:36:35.078Z,1001.14
2017-12-26T02:37:15.637Z,1001.13
2017-12-26T02:37:56.194Z,1001.13
2017-12-26T02:38:36.757Z,1001.09
2017-12-26T02:39:17.330Z,1001.12
2017-12-26T02:39:57.902Z,1001.1
2017-12-26T02:40:38.515Z,1001.1
2017-12-26T02:41:19.113Z,1001.04
2017-12-26T02:41:59.683Z,1001.01
2017-12-26T02:42:40.258Z,1001.01
2017-12-26T02:43:20.827Z,1000.98
2017-12-26T02:44:01.475Z,1000.96
2017-12-26T02:44:42.009Z,1000.97
2017-12-26T02:45:22.564Z,1000.95
2017-12-26T02:46:03.149Z,1000.92
2017-12-26T02:46:43.725Z,1000.94
2017-12-26T02:47:24.346Z,1000.96
2017-12-26T02:48:04.926Z,1000.97
2017-12-26T02:48:45.523Z,1000.9
2017-12-26T02:49:26.106Z,1000.92
2017-12-26T02:50:06.690Z,1000.9
2017-12-26T02:50:47.240Z,1000.86
2017-12-26T02:51:27.813Z,1000.86
2017-12-26T02:52:08.383Z,1000.89
2017-12-26T02:52:48.940Z,1000.88
2017-12-26T02:53:29.498Z,1000.85
2017-12-26T02:54:10.092Z,1000.82
2017-12-26T02:54:50.659Z,1000.88
2017-12-26T02:55:31.257Z,1000.81
2017-12-26T02:56:11.873Z,1000.86
2017-12-26T02:56:52.462Z,1000.79
2017-12-26T02:57:33.045Z,1000.82
2017-12-26T02:58:13.654Z,1000.76
2017-12-26T02:58:54.205Z,1000.8
2017-12-26T02:59:34.803Z,1000.83
2017-12-26T03:00:15.387Z,1000.81
2017-12-26T03:00:55.972Z,1000.82
2017-12-26T03:01:36.539Z,1000.81
2017-12-26T03:02:17.126Z,1000.8
2017-12-26T03:02:57.690Z,1000.82
2017-12-26T03:03:38.285Z,1000.81
2017-12-26T03:04:18.900Z,1000.77
2017-12-26T03:04:59.489Z,1000.8
2017-12-26T03:05:40.098Z,1000.83
2017-12-26T03:06:20.659Z,1000.8
2017-12-26T03:07:01.253Z,1000.84
2017-12-26T03:07:41.826Z,1000.8
2017-12-26T03:08:22.405Z,1000.88
2017-12-26T03:09:02.984Z,1000.81
2017-12-26T03:09:43.551Z,1000.8
2017-12-26T03:10:24.150Z,1000.79
2017-12-26T03:11:04.739Z,1000.77
2017-12-26T03:11:45.357Z,1000.77
2017-12-26T03:12:25.934Z,1000.73
2017-12-26T03:13:06.512Z,1000.73
2017-12-26T03:13:47.099Z,1000.7
2017-12-26T03:14:27.702Z,1000.7
2017-12-26T03:15:08.314Z,1000.72
2017-12-26T03:15:48.903Z,1000.68
2017-12-26T03:16:29.510Z,1000.57
2017-12-26T03:17:10.092Z,1000.55
2017-12-26T03:17:50.666Z,1000.58
2017-12-26T03:18:31.268Z,1000.57
2017-12-26T03:19:11.876Z,1000.54
2017-12-26T03:19:52.474Z,1000.57
2017-12-26T03:20:33.061Z,1000.5
2017-12-26T03:21:13.633Z,1000.56
2017-12-26T03:21:54.229Z,1000.53
2017-12-26T03:22:34.795Z,1000.5
2017-12-26T03:23:15.364Z,1000.51
2017-12-26T03:23:55.985Z,1000.53
2017-12-26T03:24:36.574Z,1000.52
2017-12-26T03:25:17.144Z,1000.54
2017-12-26T03:25:57.750Z,1000.54
2017-12-26T03:26:38.327Z,1000.53
2017-12-26T03:27:18.937Z,1000.54
2017-12-26T03:27:59.491Z,1000.51
2017-12-26T03:28:40.068Z,1000.5
2017-12-26T03:29:20.676Z,1000.49
2017-12-26T03:30:01.282Z,1000.5
2017-12-26T03:30:41.880Z,1000.49
2017-12-26T03:31:22.442Z,1000.43
2017-12-26T03:32:03.013Z,1000.42
2017-12-26T03:32:43.594Z,1000.43
2017-12-26T03:33:24.189Z,1000.38
2017-12-26T03:34:04.765Z,1000.38
2017-12-26T03:34:45.344Z,1000.35
2017-12-26T03:35:25.931Z,1000.33
2017-12-26T03:36:06.510Z,1000.3
2017-12-26T03:36:47.087Z,1000.33
2017-12-26T03:37:27.690Z,1000.31
2017-12-26T03:38:08.267Z,1000.31
2017-12-26T03:38:48.833Z,1000.26
2017-12-26T03:39:29.412Z,1000.25
2017-12-26T03:40:10.002Z,1000.26
2017-12-26T03:40:50.592Z,1000.28
2017-12-26T03:41:31.184Z,1000.27
2017-12-26T03:42:11.813Z,1000.26
2017-12-26T03:42:52.371Z,1000.24
2017-12-26T03:43:32.957Z,1000.23
2017-12-26T03:44:13.535Z,1000.2
2017-12-26T03:44:54.112Z,1000.2
2017-12-26T03:45:34.699Z,1000.18
2017-12-26T03:46:15.266Z,1000.16
2017-12-26T03:46:55.868Z,1000.13
2017-12-26T03:47:36.482Z,1000.15
2017-12-26T03:48:17.071Z,1000.12
2017-12-26T03:48:57.641Z,1000.1
2017-12-26T03:49:38.235Z,1000.1
2017-12-26T03:50:18.822Z,1000.12
2017-12-26T03:50:59.389Z,1000.12
2017-12-26T03:51:39.990Z,1000.06
2017-12-26T03:52:20.545Z,1000.09
2017-12-26T03:53:01.116Z,1000.09
2017-12-26T03:53:41.703Z,1000.1
2017-12-26T03:54:22.265Z,1000.04
2017-12-26T03:55:02.845Z,1000.01
2017-12-26T03:55:43.454Z,999.99
2017-12-26T03:56:24.043Z,999.96
2017-12-26T03:57:04.691Z,999.97
2017-12-26T03:57:45.275Z,999.94
2017-12-26T03:58:25.840Z,999.93
2017-12-26T03:59:06.453Z,999.94
2017-12-26T03:59:47.005Z,999.93
2017-12-26T04:00:27.593Z,999.92
2017-12-26T04:01:08.176Z,999.92
2017-12-26T04:01:48.750Z,999.91
2017-12-26T04:02:29.318Z,999.87
2017-12-26T04:03:09.900Z,999.9
2017-12-26T04:03:56.397Z,999.91
2017-12-26T04:06:42.320Z,999.92
2017-12-26T04:07:22.886Z,999.94
2017-12-26T04:08:03.450Z,999.89
2017-12-26T04:08:44.033Z,999.87
2017-12-26T04:09:24.593Z,999.92
2017-12-26T04:10:05.192Z,999.9
2017-12-26T04:10:45.758Z,999.82
2017-12-26T04:11:26.319Z,999.85
2017-12-26T04:12:06.872Z,999.87
2017-12-26T04:12:47.456Z,999.85
2017-12-26T04:13:28.060Z,999.79
2017-12-26T04:14:08.628Z,999.79
2017-12-26T04:14:49.214Z,999.73
2017-12-26T04:15:29.774Z,999.74
2017-12-26T04:16:10.357Z,999.74
2017-12-26T04:16:50.953Z,999.72
2017-12-26T04:17:31.550Z,999.69
2017-12-26T04:18:12.110Z,999.66
2017-12-26T04:18:52.682Z,999.65
2017-12-26T04:19:33.238Z,999.64
2017-12-26T04:20:13.812Z,999.64
2017-12-26T04:20:54.409Z,999.6
2017-12-26T04:21:34.983Z,999.57
2017-12-26T04:22:15.569Z,999.53
2017-12-26T04:22:56.159Z,999.52
2017-12-26T04:23:36.742Z,999.5
2017-12-26T04:24:17.306Z,999.5
2017-12-26T04:24:57.901Z,999.49
2017-12-26T04:25:38.493Z,999.51
2017-12-26T04:26:19.108Z,999.45
2017-12-26T04:26:59.697Z,999.48
2017-12-26T04:27:40.258Z,999.44
2017-12-26T04:28:20.840Z,999.41
2017-12-26T04:29:01.404Z,999.38
2017-12-26T04:29:41.993Z,999.33
2017-12-26T04:30:22.585Z,999.31
2017-12-26T04:31:03.185Z,999.36
2017-12-26T04:31:43.767Z,999.34
2017-12-26T04:32:24.362Z,999.31
2017-12-26T04:33:04.935Z,999.32
2017-12-26T04:33:45.566Z,999.3
2017-12-26T04:34:26.202Z,999.28
2017-12-26T04:35:06.807Z,999.27
2017-12-26T04:35:47.401Z,999.25
2017-12-26T04:36:27.984Z,999.24
2017-12-26T04:37:08.570Z,999.22
2017-12-26T04:37:49.131Z,999.19
2017-12-26T04:38:29.736Z,999.22
2017-12-26T04:39:10.320Z,999.21
2017-12-26T04:39:50.897Z,999.19
2017-12-26T04:40:31.455Z,999.18
2017-12-26T04:41:12.053Z,999.19
2017-12-26T04:41:52.630Z,999.16
2017-12-26T04:42:33.196Z,999.17
2017-12-26T04:43:13.758Z,999.18
2017-12-26T04:43:54.343Z,999.18
2017-12-26T04:44:34.906Z,999.14
2017-12-26T04:45:15.472Z,999.11
2017-12-26T04:45:56.033Z,999.14
2017-12-26T04:46:36.596Z,999.14
2017-12-26T04:47:17.146Z,999.19
2017-12-26T04:47:57.710Z,999.16
2017-12-26T04:48:38.313Z,999.17
2017-12-26T04:49:18.897Z,999.14
2017-12-26T04:49:59.507Z,999.08
2017-12-26T04:50:40.103Z,999.14
2017-12-26T04:51:20.717Z,999.12
2017-12-26T04:52:01.298Z,999.15
2017-12-26T04:52:41.860Z,999.09
2017-12-26T04:53:22.429Z,999.05
2017-12-26T04:54:03.021Z,999.06
2017-12-26T04:54:43.612Z,999
2017-12-26T04:55:24.192Z,999.01
2017-12-26T04:56:04.752Z,999.03
2017-12-26T04:56:45.320Z,999.01
2017-12-26T04:57:25.913Z,999
2017-12-26T04:58:06.467Z,999.01
2017-12-26T04:58:47.059Z,999
2017-12-26T04:59:27.636Z,999.01
2017-12-26T05:00:08.196Z,999.04
2017-12-26T05:00:48.767Z,999.03
2017-12-26T05:01:29.366Z,999.02
2017-12-26T05:02:09.948Z,999.01
2017-12-26T05:02:50.505Z,998.96
2017-12-26T05:03:31.077Z,998.93
2017-12-26T05:04:11.633Z,998.92
2017-12-26T05:04:52.218Z,998.94
2017-12-26T05:05:32.782Z,998.98
2017-12-26T05:06:13.379Z,998.92
2017-12-26T05:06:53.952Z,998.94
2017-12-26T05:07:34.527Z,998.94
2017-12-26T05:08:15.090Z,998.92
2017-12-26T05:08:55.677Z,998.95
2017-12-26T05:09:36.317Z,998.92
2017-12-26T05:10:16.894Z,998.9
2017-12-26T05:10:57.491Z,998.93
2017-12-26T05:11:38.077Z,998.92
2017-12-26T05:12:18.665Z,998.89
2017-12-26T05:12:59.247Z,998.91
2017-12-26T05:13:39.856Z,998.88
2017-12-26T05:14:20.460Z,998.96
2017-12-26T05:15:01.030Z,998.93
2017-12-26T05:15:41.651Z,998.91
2017-12-26T05:16:22.217Z,998.92
2017-12-26T05:17:02.800Z,998.91
2017-12-26T05:17:43.383Z,998.93
2017-12-26T05:18:23.959Z,998.94
2017-12-26T05:19:04.516Z,998.94
2017-12-26T05:19:45.131Z,998.91
2017-12-26T05:20:25.703Z,998.92
2017-12-26T05:21:06.265Z,998.98
2017-12-26T05:21:46.853Z,999.01
2017-12-26T05:22:27.426Z,998.99
2017-12-26T05:23:07.989Z,998.92
2017-12-26T05:23:48.628Z,998.9
2017-12-26T05:24:29.202Z,998.91
2017-12-26T05:25:09.775Z,998.87
2017-12-26T05:25:50.339Z,998.83
2017-12-26T05:26:30.916Z,998.82
2017-12-26T05:27:11.482Z,998.78
2017-12-26T05:27:52.092Z,998.79
2017-12-26T05:28:32.671Z,998.76
2017-12-26T05:29:13.235Z,998.73
2017-12-26T05:29:53.818Z,998.73
2017-12-26T05:30:34.390Z,998.72
2017-12-26T05:31:14.982Z,998.69
2017-12-26T05:31:55.548Z,998.74
2017-12-26T05:32:36.120Z,998.7
2017-12-26T05:33:16.711Z,998.71
2017-12-26T05:33:57.278Z,998.68
2017-12-26T05:34:37.856Z,998.68
2017-12-26T05:35:18.435Z,998.69
2017-12-26T05:35:59.022Z,998.72
2017-12-26T05:36:39.603Z,998.73
2017-12-26T05:37:20.226Z,998.64
2017-12-26T05:38:00.838Z,998.61
2017-12-26T05:38:41.425Z,998.65
2017-12-26T05:39:22.010Z,998.64
2017-12-26T05:40:02.605Z,998.67
2017-12-26T05:40:43.171Z,998.65
2017-12-26T05:41:23.731Z,998.62
2017-12-26T05:42:04.353Z,998.61
2017-12-26T05:42:44.935Z,998.56
2017-12-26T05:43:25.540Z,998.58
2017-12-26T05:44:06.092Z,998.56
2017-12-26T05:44:46.693Z,998.51
2017-12-26T05:45:27.300Z,998.55
2017-12-26T05:46:07.904Z,998.48
2017-12-26T05:46:48.481Z,998.5
2017-12-26T05:47:29.053Z,998.46
2017-12-26T05:48:09.644Z,998.47
2017-12-26T05:48:50.235Z,998.5
2017-12-26T05:49:30.806Z,998.52
2017-12-26T05:50:11.410Z,998.45
2017-12-26T05:50:51.990Z,998.43
2017-12-26T05:51:32.553Z,998.42
2017-12-26T05:52:13.119Z,998.41
2017-12-26T05:52:53.695Z,998.47
2017-12-26T05:53:34.252Z,998.48
2017-12-26T05:54:14.826Z,998.47
2017-12-26T05:54:55.390Z,998.42
2017-12-26T05:55:35.970Z,998.45
2017-12-26T05:56:16.576Z,998.49
2017-12-26T05:56:57.144Z,998.46
2017-12-26T05:57:37.749Z,998.41
2017-12-26T05:58:18.340Z,998.4
2017-12-26T05:58:58.937Z,998.38
2017-12-26T05:59:39.548Z,998.38
2017-12-26T06:00:20.153Z,998.38
2017-12-26T06:01:00.748Z,998.39
2017-12-26T06:01:41.325Z,998.36
2017-12-26T06:02:21.882Z,998.4
2017-12-26T06:03:02.450Z,998.36
2017-12-26T06:03:43.087Z,998.36
2017-12-26T06:04:23.650Z,998.36
2017-12-26T06:05:04.219Z,998.39
2017-12-26T06:05:44.814Z,998.33
2017-12-26T06:06:25.381Z,998.36
2017-12-26T06:07:05.998Z,998.37
2017-12-26T06:07:46.598Z,998.32
2017-12-26T06:08:27.184Z,998.33
2017-12-26T06:09:07.750Z,998.26
2017-12-26T06:09:48.334Z,998.26
2017-12-26T06:10:28.916Z,998.27
2017-12-26T06:11:09.516Z,998.26
2017-12-26T06:11:50.126Z,998.26
2017-12-26T06:12:30.708Z,998.23
2017-12-26T06:13:11.277Z,998.22
2017-12-26T06:13:51.830Z,998.22
2017-12-26T06:14:32.416Z,998.19
2017-12-26T06:15:12.997Z,998.22
2017-12-26T06:15:53.597Z,998.19
2017-12-26T06:16:34.177Z,998.22
2017-12-26T06:17:14.747Z,998.19
2017-12-26T06:17:55.306Z,998.23
2017-12-26T06:18:35.895Z,998.18
2017-12-26T06:19:16.444Z,998.12
2017-12-26T06:19:57.034Z,998.12
2017-12-26T06:20:37.616Z,998.1
2017-12-26T06:21:18.172Z,998.09
2017-12-26T06:21:58.784Z,998.1
2017-12-26T06:22:39.356Z,998.08
2017-12-26T06:23:19.970Z,998.08
2017-12-26T06:24:00.546Z,998.05
2017-12-26T06:24:41.151Z,998.07
2017-12-26T06:25:21.738Z,998.06
2017-12-26T06:26:02.319Z,998.08
2017-12-26T06:26:42.892Z,998.06
2017-12-26T06:27:23.473Z,998.03
2017-12-26T06:28:04.022Z,998.02
2017-12-26T06:28:44.644Z,998.04
2017-12-26T06:29:25.229Z,998.04
2017-12-26T06:30:05.839Z,998.02
2017-12-26T06:30:46.436Z,998
2017-12-26T06:31:27.036Z,998.01
2017-12-26T06:32:07.607Z,998.01
2017-12-26T06:32:48.190Z,998.01
2017-12-26T06:33:28.738Z,997.99
2017-12-26T06:34:09.296Z,998
2017-12-26T06:34:49.861Z,998.01
2017-12-26T06:35:30.444Z,998
2017-12-26T06:36:11.022Z,997.91
2017-12-26T06:36:51.593Z,997.92
2017-12-26T06:37:32.179Z,997.92
2017-12-26T06:38:12.769Z,997.94
2017-12-26T06:38:53.358Z,997.92
2017-12-26T06:39:33.944Z,997.91
2017-12-26T06:40:14.504Z,997.97
2017-12-26T06:40:55.112Z,998.04
2017-12-26T06:41:35.741Z,998.02
2017-12-26T06:42:16.312Z,998.07
2017-12-26T06:42:56.915Z,998.01
2017-12-26T06:43:37.523Z,998.01
2017-12-26T06:44:18.109Z,997.95
2017-12-26T06:44:58.761Z,997.96
2017-12-26T06:45:39.378Z,997.98
2017-12-26T06:46:19.922Z,997.99
2017-12-26T06:47:00.507Z,997.95
2017-12-26T06:47:41.059Z,998
2017-12-26T06:48:21.631Z,997.99
2017-12-26T06:49:02.217Z,997.98
2017-12-26T06:49:42.795Z,997.99
2017-12-26T06:50:23.346Z,997.95
2017-12-26T06:51:03.906Z,997.98
2017-12-26T06:51:44.491Z,997.97
2017-12-26T06:52:25.066Z,997.96
2017-12-26T06:53:05.634Z,997.95
2017-12-26T06:53:46.181Z,997.94
2017-12-26T06:54:26.754Z,997.93
2017-12-26T06:55:07.312Z,997.87
2017-12-26T06:55:47.895Z,997.94
2017-12-26T06:56:28.517Z,997.85
2017-12-26T06:57:09.112Z,997.87
2017-12-26T06:57:49.719Z,997.91
2017-12-26T06:58:30.313Z,997.91
2017-12-26T06:59:10.888Z,997.93
2017-12-26T06:59:51.446Z,997.88
2017-12-26T07:00:32.017Z,997.94
2017-12-26T07:01:12.583Z,997.96
2017-12-26T07:01:53.155Z,997.95
2017-12-26T07:02:33.744Z,997.94
2017-12-26T07:03:14.334Z,997.96
2017-12-26T07:03:54.950Z,997.96
2017-12-26T07:04:35.534Z,997.92
2017-12-26T07:05:16.178Z,997.88
2017-12-26T07:05:56.773Z,997.93
2017-12-26T07:06:37.342Z,997.87
2017-12-26T07:07:17.910Z,997.89
2017-12-26T07:07:58.491Z,997.86
2017-12-26T07:08:39.080Z,997.83
2017-12-26T07:09:19.667Z,997.81
2017-12-26T07:10:00.244Z,997.82
2017-12-26T07:10:40.806Z,997.8
2017-12-26T07:11:21.408Z,997.83
2017-12-26T07:12:01.999Z,997.81
2017-12-26T07:12:42.559Z,997.76
2017-12-26T07:13:23.122Z,997.78
2017-12-26T07:14:03.697Z,997.79
2017-12-26T07:14:44.294Z,997.79
2017-12-26T07:15:24.910Z,997.78
2017-12-26T07:16:05.496Z,997.77
2017-12-26T07:16:46.076Z,997.74
2017-12-26T07:17:26.670Z,997.74
2017-12-26T07:18:07.290Z,997.78
2017-12-26T07:18:47.876Z,997.78
2017-12-26T07:19:28.461Z,997.77
2017-12-26T07:20:09.038Z,997.8
2017-12-26T07:20:50.354Z,997.76
2017-12-26T07:21:30.972Z,997.73
2017-12-26T07:22:11.551Z,997.72
2017-12-26T07:22:52.154Z,997.74
2017-12-26T07:23:32.728Z,997.7
2017-12-26T07:24:13.334Z,997.66
2017-12-26T07:24:53.922Z,997.68
2017-12-26T07:25:34.547Z,997.65
2017-12-26T07:26:15.122Z,997.65
2017-12-26T07:26:55.727Z,997.64
2017-12-26T07:27:36.324Z,997.62
2017-12-26T07:28:16.918Z,997.65
2017-12-26T07:28:57.517Z,997.65
2017-12-26T07:29:38.118Z,997.65
2017-12-26T07:30:18.724Z,997.66
2017-12-26T07:30:59.312Z,997.63
2017-12-26T07:31:39.939Z,997.67
2017-12-26T07:32:20.534Z,997.64
2017-12-26T07:33:01.144Z,997.7
2017-12-26T07:33:41.725Z,997.65
2017-12-26T07:34:22.290Z,997.63
2017-12-26T07:35:02.881Z,997.67
2017-12-26T07:35:43.487Z,997.67
2017-12-26T07:36:24.110Z,997.64
2017-12-26T07:37:04.666Z,997.57
2017-12-26T07:37:45.287Z,997.61
2017-12-26T07:38:25.849Z,997.62
2017-12-26T07:39:06.423Z,997.6
2017-12-26T07:39:47.017Z,997.57
2017-12-26T07:40:27.629Z,997.54
2017-12-26T07:41:08.218Z,997.5
2017-12-26T07:41:48.825Z,997.53
2017-12-26T07:42:29.401Z,997.5
2017-12-26T07:43:09.973Z,997.48
2017-12-26T07:43:50.551Z,997.5
2017-12-26T07:44:31.132Z,997.53
2017-12-26T07:45:11.731Z,997.52
2017-12-26T07:45:52.378Z,997.5
2017-12-26T07:46:32.947Z,997.54
2017-12-26T07:47:13.540Z,997.5
2017-12-26T07:47:54.145Z,997.48
2017-12-26T07:48:34.720Z,997.54
2017-12-26T07:49:15.301Z,997.54
2017-12-26T07:49:55.909Z,997.51
2017-12-26T07:50:36.483Z,997.5
2017-12-26T07:51:17.063Z,997.49
2017-12-26T07:51:57.644Z,997.5
2017-12-26T07:52:38.271Z,997.53
2017-12-26T07:53:18.867Z,997.55
2017-12-26T07:53:59.470Z,997.45
2017-12-26T07:54:40.064Z,997.48
2017-12-26T07:55:20.622Z,997.46
2017-12-26T07:56:01.228Z,997.48
2017-12-26T07:56:41.816Z,997.39
2017-12-26T07:57:22.430Z,997.39
2017-12-26T07:58:02.977Z,997.39
2017-12-26T07:58:43.564Z,997.4
2017-12-26T07:59:24.152Z,997.3
2017-12-26T08:00:04.752Z,997.35
2017-12-26T08:00:45.342Z,997.36
2017-12-26T08:01:25.979Z,997.39
2017-12-26T08:02:06.587Z,997.36
2017-12-26T08:02:47.149Z,997.41
2017-12-26T08:03:27.739Z,997.35
2017-12-26T08:04:08.296Z,997.35
2017-12-26T08:04:48.940Z,997.37
2017-12-26T08:05:29.528Z,997.38
2017-12-26T08:06:10.111Z,997.36
2017-12-26T08:06:50.693Z,997.35
2017-12-26T08:07:31.253Z,997.32
2017-12-26T08:08:11.828Z,997.35
2017-12-26T08:08:52.411Z,997.34
2017-12-26T08:09:32.980Z,997.35
2017-12-26T08:10:13.563Z,997.37
2017-12-26T08:10:54.167Z,997.33
2017-12-26T08:11:34.751Z,997.29
2017-12-26T08:12:15.350Z,997.27
2017-12-26T08:12:55.938Z,997.4
2017-12-26T08:13:36.524Z,997.34
2017-12-26T08:14:17.120Z,997.31
2017-12-26T08:14:57.689Z,997.3
2017-12-26T08:15:38.277Z,997.31
2017-12-26T08:16:18.888Z,997.33
2017-12-26T08:16:59.448Z,997.29
2017-12-26T08:17:40.054Z,997.28
2017-12-26T08:18:20.653Z,997.25
2017-12-26T08:19:01.234Z,997.27
2017-12-26T08:19:41.854Z,997.26
2017-12-26T08:20:22.403Z,997.27
2017-12-26T08:21:02.997Z,997.28
2017-12-26T08:21:43.608Z,997.3
2017-12-26T08:22:24.242Z,997.28
2017-12-26T08:23:04.824Z,997.26